Portada
METAR-TAF:

METAR-TAF

Aeroports :

Aeroport Internacional de Riga

Riga, Letònia

latitud: 56-55N, longitud: 023-58E, altitud: 10 m

Observació

L'informe es va fer fa 18 minuts, a les 20:20 UTC
Vent 9 kt del Est/Nord-Est
Temperatura 12°C
Humitat 50%
Pressió 1020 hPa
Visibilitat 10 km o més
sense núvols per sota de 1500 mi sense presència de cumulonimbus.

METAR: EVRA 012020Z 06009KT CAVOK 12/02 Q1020 NOSIG

Hora: 23:38 (20:38 UTC)

Pronòstic

L'informe es va fer fa 3 hores i 37 minuts, a les 17:01 UTC
Pronòstic vàlid del 01 a les 18 UTC al 02 a les 18 UTC
Vent 10 kt del Nord
Visibilitat 10 km o més
sense núvols per sota de 1500 mi sense presència de cumulonimbus.
Temporalment
l' 02 a les 08 UTC al 02 a les 15 UTC
Vent 15 kt del Nord/Nord-Est amb ràfegues de 28 kt

TAF: EVRA 011701Z 0118/0218 36010KT CAVOK TEMPO 0208/0215 02015G28KT

Observacions i pronòstics meteorològics de més de 4000 aeroports (METAR i TAF).

Les estacions disponibles són els punts grocs i vermells al mapa.

Posi el ratolí al punt desitjat per veure el nom de l'estació.

Feu clic per veure les observacions i els pronòstics meteorològics.

Per canviar el mapa: feu clic els botons verds amb una creu de color negre per apropar; al botó verd amb un guió per allunyar la imatge; o en les fletxes verdes per a mapes adjacents.


METAR-TAF: